sensor_id;sensor_type;location;lat;lon;timestamp;P1;durP1;ratioP1;P2;durP2;ratioP2
61640;SDS011;62201;49.966;8.342;2022-10-24T00:00:35;73.65;;;33.10;;
61640;SDS011;62201;49.966;8.342;2022-10-24T00:03:00;137.70;;;47.40;;
61640;SDS011;62201;49.966;8.342;2022-10-24T00:05:26;40.85;;;22.35;;
61640;SDS011;62201;49.966;8.342;2022-10-24T00:07:51;83.72;;;34.05;;
61640;SDS011;62201;49.966;8.342;2022-10-24T00:10:17;125.22;;;45.13;;
61640;SDS011;62201;49.966;8.342;2022-10-24T00:12:43;88.03;;;35.10;;
61640;SDS011;62201;49.966;8.342;2022-10-24T00:15:08;154.32;;;46.50;;
61640;SDS011;62201;49.966;8.342;2022-10-24T00:17:34;50.53;;;23.48;;
61640;SDS011;62201;49.966;8.342;2022-10-24T00:19:59;74.90;;;31.10;;
61640;SDS011;62201;49.966;8.342;2022-10-24T00:22:25;76.43;;;31.85;;
61640;SDS011;62201;49.966;8.342;2022-10-24T00:24:51;99.45;;;36.17;;
61640;SDS011;62201;49.966;8.342;2022-10-24T00:27:17;99.55;;;37.47;;
61640;SDS011;62201;49.966;8.342;2022-10-24T00:29:42;77.57;;;31.08;;
61640;SDS011;62201;49.966;8.342;2022-10-24T00:32:08;62.40;;;31.00;;
61640;SDS011;62201;49.966;8.342;2022-10-24T00:34:33;119.05;;;46.55;;
61640;SDS011;62201;49.966;8.342;2022-10-24T00:36:59;122.07;;;46.83;;
61640;SDS011;62201;49.966;8.342;2022-10-24T00:39:24;123.32;;;51.17;;
61640;SDS011;62201;49.966;8.342;2022-10-24T00:41:50;216.90;;;71.70;;
61640;SDS011;62201;49.966;8.342;2022-10-24T00:46:46;102.60;;;46.85;;
61640;SDS011;62201;49.966;8.342;2022-10-24T00:49:20;113.68;;;40.30;;
61640;SDS011;62201;49.966;8.342;2022-10-24T00:51:50;91.13;;;40.13;;
61640;SDS011;62201;49.966;8.342;2022-10-24T00:54:18;43.35;;;21.50;;
61640;SDS011;62201;49.966;8.342;2022-10-24T00:56:46;109.75;;;43.70;;
61640;SDS011;62201;49.966;8.342;2022-10-24T00:59:25;88.50;;;38.72;;
61640;SDS011;62201;49.966;8.342;2022-10-24T01:01:52;74.72;;;33.00;;
61640;SDS011;62201;49.966;8.342;2022-10-24T01:04:18;55.30;;;28.65;;
61640;SDS011;62201;49.966;8.342;2022-10-24T01:07:00;85.35;;;41.47;;
61640;SDS011;62201;49.966;8.342;2022-10-24T01:12:24;127.95;;;47.10;;
61640;SDS011;62201;49.966;8.342;2022-10-24T01:17:58;84.07;;;32.97;;
61640;SDS011;62201;49.966;8.342;2022-10-24T01:26:03;125.88;;;44.92;;
61640;SDS011;62201;49.966;8.342;2022-10-24T01:31:30;276.30;;;55.53;;
61640;SDS011;62201;49.966;8.342;2022-10-24T01:34:06;44.10;;;20.85;;
61640;SDS011;62201;49.966;8.342;2022-10-24T01:36:43;82.50;;;33.28;;
61640;SDS011;62201;49.966;8.342;2022-10-24T01:39:15;54.45;;;25.08;;
61640;SDS011;62201;49.966;8.342;2022-10-24T01:41:44;105.78;;;36.47;;
61640;SDS011;62201;49.966;8.342;2022-10-24T01:44:19;88.45;;;34.60;;
61640;SDS011;62201;49.966;8.342;2022-10-24T01:46:56;216.85;;;44.80;;
61640;SDS011;62201;49.966;8.342;2022-10-24T01:49:28;317.40;;;49.38;;
61640;SDS011;62201;49.966;8.342;2022-10-24T01:51:58;358.65;;;55.45;;
61640;SDS011;62201;49.966;8.342;2022-10-24T01:54:27;283.38;;;52.42;;
61640;SDS011;62201;49.966;8.342;2022-10-24T01:56:54;207.25;;;37.33;;
61640;SDS011;62201;49.966;8.342;2022-10-24T02:01:56;198.45;;;52.10;;
61640;SDS011;62201;49.966;8.342;2022-10-24T02:04:32;66.05;;;26.13;;
61640;SDS011;62201;49.966;8.342;2022-10-24T02:07:00;66.88;;;27.35;;
61640;SDS011;62201;49.966;8.342;2022-10-24T02:09:28;70.28;;;27.25;;
61640;SDS011;62201;49.966;8.342;2022-10-24T02:11:55;137.63;;;43.22;;
61640;SDS011;62201;49.966;8.342;2022-10-24T02:14:26;126.93;;;33.28;;
61640;SDS011;62201;49.966;8.342;2022-10-24T02:16:57;453.85;;;54.95;;
61640;SDS011;62201;49.966;8.342;2022-10-24T02:19:23;356.60;;;52.72;;
61640;SDS011;62201;49.966;8.342;2022-10-24T02:27:19;445.70;;;53.60;;
61640;SDS011;62201;49.966;8.342;2022-10-24T02:29:53;526.50;;;79.90;;
61640;SDS011;62201;49.966;8.342;2022-10-24T02:32:31;322.27;;;58.15;;
61640;SDS011;62201;49.966;8.342;2022-10-24T02:35:03;150.80;;;36.10;;
61640;SDS011;62201;49.966;8.342;2022-10-24T02:37:30;124.22;;;45.08;;
61640;SDS011;62201;49.966;8.342;2022-10-24T02:40:00;258.00;;;69.32;;
61640;SDS011;62201;49.966;8.342;2022-10-24T02:42:29;53.22;;;23.80;;
61640;SDS011;62201;49.966;8.342;2022-10-24T02:44:56;161.02;;;55.75;;
61640;SDS011;62201;49.966;8.342;2022-10-24T02:47:22;136.90;;;49.67;;
61640;SDS011;62201;49.966;8.342;2022-10-24T02:49:50;106.05;;;39.78;;
61640;SDS011;62201;49.966;8.342;2022-10-24T02:52:16;141.48;;;53.58;;
61640;SDS011;62201;49.966;8.342;2022-10-24T02:54:41;122.55;;;47.40;;
61640;SDS011;62201;49.966;8.342;2022-10-24T02:57:07;26.42;;;15.93;;
61640;SDS011;62201;49.966;8.342;2022-10-24T02:59:32;142.95;;;47.30;;
61640;SDS011;62201;49.966;8.342;2022-10-24T03:01:58;109.10;;;40.90;;
61640;SDS011;62201;49.966;8.342;2022-10-24T03:04:23;50.45;;;24.80;;
61640;SDS011;62201;49.966;8.342;2022-10-24T03:06:48;63.75;;;27.73;;
61640;SDS011;62201;49.966;8.342;2022-10-24T03:09:14;95.32;;;39.13;;
61640;SDS011;62201;49.966;8.342;2022-10-24T03:11:40;47.95;;;23.80;;
61640;SDS011;62201;49.966;8.342;2022-10-24T03:14:05;103.88;;;37.55;;
61640;SDS011;62201;49.966;8.342;2022-10-24T03:16:31;123.60;;;40.00;;
61640;SDS011;62201;49.966;8.342;2022-10-24T03:18:56;176.35;;;42.78;;
61640;SDS011;62201;49.966;8.342;2022-10-24T03:21:22;148.75;;;28.98;;
61640;SDS011;62201;49.966;8.342;2022-10-24T03:23:47;262.45;;;56.25;;
61640;SDS011;62201;49.966;8.342;2022-10-24T03:26:13;488.27;;;64.60;;
61640;SDS011;62201;49.966;8.342;2022-10-24T03:28:38;406.30;;;65.18;;
61640;SDS011;62201;49.966;8.342;2022-10-24T03:31:04;332.75;;;59.78;;
61640;SDS011;62201;49.966;8.342;2022-10-24T03:33:30;236.02;;;58.83;;
61640;SDS011;62201;49.966;8.342;2022-10-24T03:35:55;154.93;;;47.45;;
61640;SDS011;62201;49.966;8.342;2022-10-24T03:38:21;138.00;;;44.15;;
61640;SDS011;62201;49.966;8.342;2022-10-24T03:40:47;139.60;;;42.88;;
61640;SDS011;62201;49.966;8.342;2022-10-24T03:43:13;142.48;;;48.40;;
61640;SDS011;62201;49.966;8.342;2022-10-24T03:45:39;103.72;;;41.15;;
61640;SDS011;62201;49.966;8.342;2022-10-24T03:48:05;76.32;;;31.85;;
61640;SDS011;62201;49.966;8.342;2022-10-24T03:50:30;115.80;;;40.13;;
61640;SDS011;62201;49.966;8.342;2022-10-24T03:52:56;91.22;;;35.60;;
61640;SDS011;62201;49.966;8.342;2022-10-24T03:55:21;47.58;;;22.45;;
61640;SDS011;62201;49.966;8.342;2022-10-24T03:57:47;122.63;;;43.08;;
61640;SDS011;62201;49.966;8.342;2022-10-24T04:00:13;39.00;;;20.65;;
61640;SDS011;62201;49.966;8.342;2022-10-24T04:02:38;77.03;;;32.70;;
61640;SDS011;62201;49.966;8.342;2022-10-24T04:05:04;40.40;;;21.20;;
61640;SDS011;62201;49.966;8.342;2022-10-24T04:07:30;55.58;;;25.40;;
61640;SDS011;62201;49.966;8.342;2022-10-24T04:09:55;66.72;;;30.63;;
61640;SDS011;62201;49.966;8.342;2022-10-24T04:12:21;68.82;;;31.65;;
61640;SDS011;62201;49.966;8.342;2022-10-24T04:14:47;115.78;;;43.80;;
61640;SDS011;62201;49.966;8.342;2022-10-24T04:17:13;74.07;;;32.40;;
61640;SDS011;62201;49.966;8.342;2022-10-24T04:19:38;36.83;;;21.30;;
61640;SDS011;62201;49.966;8.342;2022-10-24T04:22:04;55.75;;;26.60;;
61640;SDS011;62201;49.966;8.342;2022-10-24T04:24:29;41.67;;;21.77;;
61640;SDS011;62201;49.966;8.342;2022-10-24T04:26:55;45.22;;;21.83;;
61640;SDS011;62201;49.966;8.342;2022-10-24T04:29:20;128.48;;;45.25;;
61640;SDS011;62201;49.966;8.342;2022-10-24T04:31:46;77.80;;;30.13;;
61640;SDS011;62201;49.966;8.342;2022-10-24T04:34:11;111.28;;;40.83;;
61640;SDS011;62201;49.966;8.342;2022-10-24T04:36:36;91.65;;;36.05;;
61640;SDS011;62201;49.966;8.342;2022-10-24T04:39:02;68.68;;;30.63;;
61640;SDS011;62201;49.966;8.342;2022-10-24T04:41:28;173.80;;;51.97;;
61640;SDS011;62201;49.966;8.342;2022-10-24T04:43:53;32.58;;;17.95;;
61640;SDS011;62201;49.966;8.342;2022-10-24T04:46:18;104.70;;;39.88;;
61640;SDS011;62201;49.966;8.342;2022-10-24T04:48:44;65.15;;;29.40;;
61640;SDS011;62201;49.966;8.342;2022-10-24T04:51:10;74.47;;;30.52;;
61640;SDS011;62201;49.966;8.342;2022-10-24T04:53:35;64.85;;;27.65;;
61640;SDS011;62201;49.966;8.342;2022-10-24T04:56:01;97.50;;;35.95;;
61640;SDS011;62201;49.966;8.342;2022-10-24T04:58:26;63.30;;;28.95;;
61640;SDS011;62201;49.966;8.342;2022-10-24T05:00:51;33.38;;;18.13;;
61640;SDS011;62201;49.966;8.342;2022-10-24T05:03:18;51.83;;;25.00;;
61640;SDS011;62201;49.966;8.342;2022-10-24T05:05:44;50.17;;;21.35;;
61640;SDS011;62201;49.966;8.342;2022-10-24T05:08:11;76.80;;;33.38;;
61640;SDS011;62201;49.966;8.342;2022-10-24T05:10:36;52.00;;;24.20;;
61640;SDS011;62201;49.966;8.342;2022-10-24T05:13:02;74.15;;;32.47;;
61640;SDS011;62201;49.966;8.342;2022-10-24T05:15:27;69.00;;;30.65;;
61640;SDS011;62201;49.966;8.342;2022-10-24T05:17:56;94.10;;;38.25;;
61640;SDS011;62201;49.966;8.342;2022-10-24T05:20:22;67.75;;;30.05;;
61640;SDS011;62201;49.966;8.342;2022-10-24T05:22:48;74.30;;;31.13;;
61640;SDS011;62201;49.966;8.342;2022-10-24T05:25:13;155.13;;;50.75;;
61640;SDS011;62201;49.966;8.342;2022-10-24T05:27:38;30.13;;;16.90;;
61640;SDS011;62201;49.966;8.342;2022-10-24T05:30:04;57.35;;;25.40;;
61640;SDS011;62201;49.966;8.342;2022-10-24T05:32:30;88.82;;;36.55;;
61640;SDS011;62201;49.966;8.342;2022-10-24T05:34:56;35.63;;;18.02;;
61640;SDS011;62201;49.966;8.342;2022-10-24T05:37:21;35.72;;;18.45;;
61640;SDS011;62201;49.966;8.342;2022-10-24T05:39:47;38.65;;;18.25;;
61640;SDS011;62201;49.966;8.342;2022-10-24T05:42:12;52.85;;;24.35;;
61640;SDS011;62201;49.966;8.342;2022-10-24T05:44:38;136.73;;;47.78;;
61640;SDS011;62201;49.966;8.342;2022-10-24T05:47:03;67.63;;;28.23;;
61640;SDS011;62201;49.966;8.342;2022-10-24T05:49:29;106.45;;;41.63;;
61640;SDS011;62201;49.966;8.342;2022-10-24T05:51:55;58.83;;;25.20;;
61640;SDS011;62201;49.966;8.342;2022-10-24T05:54:20;90.28;;;37.08;;
61640;SDS011;62201;49.966;8.342;2022-10-24T05:56:46;46.60;;;21.77;;
61640;SDS011;62201;49.966;8.342;2022-10-24T05:59:11;40.20;;;21.23;;
61640;SDS011;62201;49.966;8.342;2022-10-24T06:01:37;64.57;;;30.88;;
61640;SDS011;62201;49.966;8.342;2022-10-24T06:04:02;120.90;;;44.67;;
61640;SDS011;62201;49.966;8.342;2022-10-24T06:06:28;96.95;;;41.80;;
61640;SDS011;62201;49.966;8.342;2022-10-24T06:08:53;77.75;;;33.95;;
61640;SDS011;62201;49.966;8.342;2022-10-24T06:11:19;45.20;;;21.85;;
61640;SDS011;62201;49.966;8.342;2022-10-24T06:13:44;106.80;;;41.15;;
61640;SDS011;62201;49.966;8.342;2022-10-24T06:16:10;45.88;;;21.75;;
61640;SDS011;62201;49.966;8.342;2022-10-24T06:18:36;117.57;;;42.45;;
61640;SDS011;62201;49.966;8.342;2022-10-24T06:21:04;66.22;;;27.23;;
61640;SDS011;62201;49.966;8.342;2022-10-24T06:23:31;58.90;;;29.60;;
61640;SDS011;62201;49.966;8.342;2022-10-24T06:25:57;65.53;;;29.58;;
61640;SDS011;62201;49.966;8.342;2022-10-24T06:28:23;63.13;;;29.25;;
61640;SDS011;62201;49.966;8.342;2022-10-24T06:30:49;100.57;;;40.83;;
61640;SDS011;62201;49.966;8.342;2022-10-24T06:33:15;67.75;;;31.90;;
61640;SDS011;62201;49.966;8.342;2022-10-24T06:35:41;31.63;;;20.00;;
61640;SDS011;62201;49.966;8.342;2022-10-24T06:38:06;62.30;;;28.98;;
61640;SDS011;62201;49.966;8.342;2022-10-24T06:40:32;106.57;;;42.58;;
61640;SDS011;62201;49.966;8.342;2022-10-24T06:42:58;42.05;;;22.00;;
61640;SDS011;62201;49.966;8.342;2022-10-24T06:45:23;42.75;;;24.85;;
61640;SDS011;62201;49.966;8.342;2022-10-24T06:47:49;49.25;;;23.27;;
61640;SDS011;62201;49.966;8.342;2022-10-24T06:50:15;93.03;;;38.75;;
61640;SDS011;62201;49.966;8.342;2022-10-24T06:52:41;62.13;;;27.13;;
61640;SDS011;62201;49.966;8.342;2022-10-24T06:55:07;36.22;;;22.63;;
61640;SDS011;62201;49.966;8.342;2022-10-24T06:57:33;80.28;;;37.38;;
61640;SDS011;62201;49.966;8.342;2022-10-24T06:59:58;31.80;;;17.95;;
61640;SDS011;62201;49.966;8.342;2022-10-24T07:02:24;94.47;;;42.63;;
61640;SDS011;62201;49.966;8.342;2022-10-24T07:04:49;38.42;;;20.50;;
61640;SDS011;62201;49.966;8.342;2022-10-24T07:07:15;93.50;;;38.85;;
61640;SDS011;62201;49.966;8.342;2022-10-24T07:09:43;91.65;;;36.50;;
61640;SDS011;62201;49.966;8.342;2022-10-24T07:12:09;25.63;;;15.48;;
61640;SDS011;62201;49.966;8.342;2022-10-24T07:14:35;30.42;;;16.77;;
61640;SDS011;62201;49.966;8.342;2022-10-24T07:17:01;38.97;;;20.02;;
61640;SDS011;62201;49.966;8.342;2022-10-24T07:19:26;54.47;;;26.20;;
61640;SDS011;62201;49.966;8.342;2022-10-24T07:21:52;23.80;;;13.63;;
61640;SDS011;62201;49.966;8.342;2022-10-24T07:24:18;17.70;;;12.30;;
61640;SDS011;62201;49.966;8.342;2022-10-24T07:26:45;69.32;;;32.08;;
61640;SDS011;62201;49.966;8.342;2022-10-24T07:29:10;27.10;;;13.05;;
61640;SDS011;62201;49.966;8.342;2022-10-24T07:31:36;29.13;;;16.05;;
61640;SDS011;62201;49.966;8.342;2022-10-24T07:34:02;76.47;;;30.95;;
61640;SDS011;62201;49.966;8.342;2022-10-24T07:36:29;45.88;;;19.23;;
61640;SDS011;62201;49.966;8.342;2022-10-24T07:38:55;22.13;;;9.02;;
61640;SDS011;62201;49.966;8.342;2022-10-24T07:41:22;38.72;;;14.68;;
61640;SDS011;62201;49.966;8.342;2022-10-24T07:43:49;22.98;;;11.18;;
61640;SDS011;62201;49.966;8.342;2022-10-24T07:46:16;26.92;;;7.85;;
61640;SDS011;62201;49.966;8.342;2022-10-24T07:48:43;22.98;;;8.18;;
61640;SDS011;62201;49.966;8.342;2022-10-24T07:51:10;44.60;;;16.38;;
61640;SDS011;62201;49.966;8.342;2022-10-24T07:53:37;23.15;;;8.50;;
61640;SDS011;62201;49.966;8.342;2022-10-24T07:56:04;25.17;;;8.18;;
61640;SDS011;62201;49.966;8.342;2022-10-24T07:58:33;19.35;;;8.40;;
61640;SDS011;62201;49.966;8.342;2022-10-24T08:01:05;17.73;;;7.05;;
61640;SDS011;62201;49.966;8.342;2022-10-24T08:03:33;16.92;;;5.28;;
61640;SDS011;62201;49.966;8.342;2022-10-24T08:05:59;19.45;;;8.23;;
61640;SDS011;62201;49.966;8.342;2022-10-24T08:08:24;17.52;;;7.60;;
61640;SDS011;62201;49.966;8.342;2022-10-24T08:10:50;24.27;;;10.05;;
61640;SDS011;62201;49.966;8.342;2022-10-24T08:13:15;16.90;;;7.03;;
61640;SDS011;62201;49.966;8.342;2022-10-24T08:15:41;31.80;;;13.65;;
61640;SDS011;62201;49.966;8.342;2022-10-24T08:18:06;23.50;;;12.30;;
61640;SDS011;62201;49.966;8.342;2022-10-24T08:20:32;20.75;;;8.63;;
61640;SDS011;62201;49.966;8.342;2022-10-24T08:22:57;29.05;;;14.95;;
61640;SDS011;62201;49.966;8.342;2022-10-24T08:25:23;22.17;;;8.60;;
61640;SDS011;62201;49.966;8.342;2022-10-24T08:27:48;22.67;;;8.10;;
61640;SDS011;62201;49.966;8.342;2022-10-24T08:30:14;21.42;;;10.07;;
61640;SDS011;62201;49.966;8.342;2022-10-24T08:32:41;23.60;;;12.75;;
61640;SDS011;62201;49.966;8.342;2022-10-24T08:35:07;24.40;;;10.60;;
61640;SDS011;62201;49.966;8.342;2022-10-24T08:37:36;20.63;;;7.93;;
61640;SDS011;62201;49.966;8.342;2022-10-24T08:40:06;21.67;;;9.48;;
61640;SDS011;62201;49.966;8.342;2022-10-24T08:42:33;23.02;;;10.82;;
61640;SDS011;62201;49.966;8.342;2022-10-24T08:45:00;25.38;;;10.38;;
61640;SDS011;62201;49.966;8.342;2022-10-24T08:52:55;25.35;;;10.77;;
61640;SDS011;62201;49.966;8.342;2022-10-24T08:55:35;20.83;;;5.95;;
61640;SDS011;62201;49.966;8.342;2022-10-24T08:58:15;16.48;;;5.57;;
61640;SDS011;62201;49.966;8.342;2022-10-24T09:00:45;17.30;;;5.63;;
61640;SDS011;62201;49.966;8.342;2022-10-24T09:03:21;25.98;;;6.07;;
61640;SDS011;62201;49.966;8.342;2022-10-24T09:05:57;23.92;;;5.95;;
61640;SDS011;62201;49.966;8.342;2022-10-24T09:08:32;18.10;;;5.45;;
61640;SDS011;62201;49.966;8.342;2022-10-24T09:11:05;17.58;;;6.20;;
61640;SDS011;62201;49.966;8.342;2022-10-24T09:13:33;18.08;;;5.30;;
61640;SDS011;62201;49.966;8.342;2022-10-24T09:16:03;17.17;;;6.38;;
61640;SDS011;62201;49.966;8.342;2022-10-24T09:21:02;24.45;;;5.72;;
61640;SDS011;62201;49.966;8.342;2022-10-24T09:23:31;21.45;;;5.30;;
61640;SDS011;62201;49.966;8.342;2022-10-24T09:25:58;16.38;;;5.30;;
61640;SDS011;62201;49.966;8.342;2022-10-24T09:28:23;15.73;;;4.80;;
61640;SDS011;62201;49.966;8.342;2022-10-24T09:30:50;18.65;;;5.63;;
61640;SDS011;62201;49.966;8.342;2022-10-24T09:33:23;18.83;;;4.95;;
61640;SDS011;62201;49.966;8.342;2022-10-24T09:35:50;16.77;;;4.55;;
61640;SDS011;62201;49.966;8.342;2022-10-24T09:40:54;18.05;;;4.68;;
61640;SDS011;62201;49.966;8.342;2022-10-24T09:43:23;13.48;;;4.20;;
61640;SDS011;62201;49.966;8.342;2022-10-24T09:46:08;12.10;;;3.83;;
61640;SDS011;62201;49.966;8.342;2022-10-24T09:51:33;16.77;;;3.80;;
61640;SDS011;62201;49.966;8.342;2022-10-24T09:54:03;14.18;;;3.38;;
61640;SDS011;62201;49.966;8.342;2022-10-24T09:56:55;16.65;;;3.60;;
61640;SDS011;62201;49.966;8.342;2022-10-24T09:59:26;15.07;;;3.70;;
61640;SDS011;62201;49.966;8.342;2022-10-24T10:07:27;9.75;;;3.05;;
61640;SDS011;62201;49.966;8.342;2022-10-24T10:09:56;15.23;;;2.97;;
61640;SDS011;62201;49.966;8.342;2022-10-24T10:12:36;14.43;;;4.50;;
61640;SDS011;62201;49.966;8.342;2022-10-24T10:15:23;9.90;;;3.10;;
61640;SDS011;62201;49.966;8.342;2022-10-24T10:18:23;15.50;;;4.03;;
61640;SDS011;62201;49.966;8.342;2022-10-24T10:21:05;18.33;;;3.63;;
61640;SDS011;62201;49.966;8.342;2022-10-24T10:23:32;16.08;;;3.30;;
61640;SDS011;62201;49.966;8.342;2022-10-24T10:26:01;15.00;;;2.85;;
61640;SDS011;62201;49.966;8.342;2022-10-24T10:28:28;10.15;;;2.90;;
61640;SDS011;62201;49.966;8.342;2022-10-24T10:30:57;13.02;;;2.92;;
61640;SDS011;62201;49.966;8.342;2022-10-24T10:36:32;9.05;;;2.58;;
61640;SDS011;62201;49.966;8.342;2022-10-24T10:41:46;11.55;;;3.10;;
61640;SDS011;62201;49.966;8.342;2022-10-24T10:50:00;13.90;;;2.85;;
61640;SDS011;62201;49.966;8.342;2022-10-24T11:00:24;11.73;;;2.80;;
61640;SDS011;62201;49.966;8.342;2022-10-24T11:05:54;11.15;;;2.53;;
61640;SDS011;62201;49.966;8.342;2022-10-24T11:11:18;8.63;;;1.90;;
61640;SDS011;62201;49.966;8.342;2022-10-24T11:16:26;9.55;;;1.40;;
61640;SDS011;62201;49.966;8.342;2022-10-24T11:19:00;8.20;;;1.63;;
61640;SDS011;62201;49.966;8.342;2022-10-24T11:21:30;4.38;;;1.20;;
61640;SDS011;62201;49.966;8.342;2022-10-24T11:24:10;11.10;;;1.80;;
61640;SDS011;62201;49.966;8.342;2022-10-24T11:26:40;7.22;;;1.40;;
61640;SDS011;62201;49.966;8.342;2022-10-24T11:34:51;7.30;;;1.80;;
61640;SDS011;62201;49.966;8.342;2022-10-24T11:37:26;4.13;;;1.60;;
61640;SDS011;62201;49.966;8.342;2022-10-24T11:40:04;6.65;;;1.42;;
61640;SDS011;62201;49.966;8.342;2022-10-24T11:45:32;6.18;;;1.45;;
61640;SDS011;62201;49.966;8.342;2022-10-24T11:48:20;10.65;;;1.30;;
61640;SDS011;62201;49.966;8.342;2022-10-24T11:51:00;11.05;;;1.80;;
61640;SDS011;62201;49.966;8.342;2022-10-24T11:56:09;7.07;;;1.52;;
61640;SDS011;62201;49.966;8.342;2022-10-24T11:58:54;12.20;;;1.50;;
61640;SDS011;62201;49.966;8.342;2022-10-24T12:01:29;6.88;;;1.42;;
61640;SDS011;62201;49.966;8.342;2022-10-24T12:12:36;6.85;;;1.10;;
61640;SDS011;62201;49.966;8.342;2022-10-24T12:15:38;6.68;;;1.77;;
61640;SDS011;62201;49.966;8.342;2022-10-24T12:21:05;9.90;;;1.92;;
61640;SDS011;62201;49.966;8.342;2022-10-24T12:23:34;5.57;;;1.60;;
61640;SDS011;62201;49.966;8.342;2022-10-24T12:26:03;7.00;;;1.67;;
61640;SDS011;62201;49.966;8.342;2022-10-24T12:28:42;6.38;;;1.45;;
61640;SDS011;62201;49.966;8.342;2022-10-24T12:31:19;5.90;;;1.52;;
61640;SDS011;62201;49.966;8.342;2022-10-24T12:34:29;6.68;;;1.75;;
61640;SDS011;62201;49.966;8.342;2022-10-24T12:37:03;5.10;;;1.60;;
61640;SDS011;62201;49.966;8.342;2022-10-24T12:39:46;8.38;;;1.85;;
61640;SDS011;62201;49.966;8.342;2022-10-24T12:42:14;7.85;;;1.70;;
61640;SDS011;62201;49.966;8.342;2022-10-24T12:58:00;3.38;;;1.33;;
61640;SDS011;62201;49.966;8.342;2022-10-24T13:00:28;4.32;;;1.13;;
61640;SDS011;62201;49.966;8.342;2022-10-24T13:14:46;5.40;;;1.25;;
61640;SDS011;62201;49.966;8.342;2022-10-24T13:17:49;4.47;;;1.30;;
61640;SDS011;62201;49.966;8.342;2022-10-24T13:20:38;4.30;;;1.00;;
61640;SDS011;62201;49.966;8.342;2022-10-24T13:23:22;4.90;;;1.20;;
61640;SDS011;62201;49.966;8.342;2022-10-24T13:25:51;6.57;;;1.15;;
61640;SDS011;62201;49.966;8.342;2022-10-24T13:30:50;3.78;;;0.90;;
61640;SDS011;62201;49.966;8.342;2022-10-24T13:35:56;6.65;;;1.20;;
61640;SDS011;62201;49.966;8.342;2022-10-24T13:38:37;5.72;;;1.33;;
61640;SDS011;62201;49.966;8.342;2022-10-24T13:41:10;3.95;;;1.13;;
61640;SDS011;62201;49.966;8.342;2022-10-24T13:43:43;7.20;;;1.13;;
61640;SDS011;62201;49.966;8.342;2022-10-24T13:46:15;3.67;;;1.00;;
61640;SDS011;62201;49.966;8.342;2022-10-24T13:48:49;6.25;;;1.48;;
61640;SDS011;62201;49.966;8.342;2022-10-24T13:51:17;6.30;;;1.25;;
61640;SDS011;62201;49.966;8.342;2022-10-24T13:53:48;5.32;;;1.33;;
61640;SDS011;62201;49.966;8.342;2022-10-24T13:56:17;3.40;;;1.05;;
61640;SDS011;62201;49.966;8.342;2022-10-24T13:58:43;5.93;;;1.05;;
61640;SDS011;62201;49.966;8.342;2022-10-24T14:01:12;3.65;;;0.88;;
61640;SDS011;62201;49.966;8.342;2022-10-24T14:03:42;5.20;;;1.10;;
61640;SDS011;62201;49.966;8.342;2022-10-24T14:06:08;4.35;;;1.30;;
61640;SDS011;62201;49.966;8.342;2022-10-24T14:08:41;9.88;;;1.60;;
61640;SDS011;62201;49.966;8.342;2022-10-24T14:11:13;8.65;;;1.05;;
61640;SDS011;62201;49.966;8.342;2022-10-24T14:13:48;3.38;;;1.08;;
61640;SDS011;62201;49.966;8.342;2022-10-24T14:16:16;3.25;;;1.00;;
61640;SDS011;62201;49.966;8.342;2022-10-24T14:18:47;4.33;;;1.13;;
61640;SDS011;62201;49.966;8.342;2022-10-24T14:21:19;7.28;;;1.60;;
61640;SDS011;62201;49.966;8.342;2022-10-24T14:23:56;10.77;;;1.45;;
61640;SDS011;62201;49.966;8.342;2022-10-24T14:26:24;4.88;;;1.20;;
61640;SDS011;62201;49.966;8.342;2022-10-24T14:28:50;4.47;;;1.00;;
61640;SDS011;62201;49.966;8.342;2022-10-24T14:31:22;4.00;;;1.10;;
61640;SDS011;62201;49.966;8.342;2022-10-24T14:33:51;4.70;;;1.50;;
61640;SDS011;62201;49.966;8.342;2022-10-24T14:36:19;4.25;;;1.20;;
61640;SDS011;62201;49.966;8.342;2022-10-24T14:38:48;6.63;;;1.50;;
61640;SDS011;62201;49.966;8.342;2022-10-24T14:41:15;5.47;;;1.33;;
61640;SDS011;62201;49.966;8.342;2022-10-24T14:43:44;5.80;;;1.23;;
61640;SDS011;62201;49.966;8.342;2022-10-24T14:48:35;5.10;;;1.10;;
61640;SDS011;62201;49.966;8.342;2022-10-24T14:53:51;7.30;;;1.23;;
61640;SDS011;62201;49.966;8.342;2022-10-24T14:58:58;4.78;;;1.25;;
61640;SDS011;62201;49.966;8.342;2022-10-24T15:01:26;5.03;;;1.20;;
61640;SDS011;62201;49.966;8.342;2022-10-24T15:04:03;5.90;;;1.05;;
61640;SDS011;62201;49.966;8.342;2022-10-24T15:06:37;4.57;;;1.52;;
61640;SDS011;62201;49.966;8.342;2022-10-24T15:11:42;8.65;;;1.67;;
61640;SDS011;62201;49.966;8.342;2022-10-24T15:17:43;6.40;;;1.08;;
61640;SDS011;62201;49.966;8.342;2022-10-24T15:19:48;5.35;;;1.10;;
61640;SDS011;62201;49.966;8.342;2022-10-24T15:22:34;6.25;;;1.33;;
61640;SDS011;62201;49.966;8.342;2022-10-24T15:25:03;5.40;;;1.13;;
61640;SDS011;62201;49.966;8.342;2022-10-24T15:27:41;7.03;;;1.58;;
61640;SDS011;62201;49.966;8.342;2022-10-24T15:30:20;3.97;;;1.20;;
61640;SDS011;62201;49.966;8.342;2022-10-24T15:32:47;6.57;;;1.45;;
61640;SDS011;62201;49.966;8.342;2022-10-24T15:35:15;6.25;;;1.42;;
61640;SDS011;62201;49.966;8.342;2022-10-24T15:37:51;4.50;;;1.17;;
61640;SDS011;62201;49.966;8.342;2022-10-24T15:40:22;5.18;;;1.52;;
61640;SDS011;62201;49.966;8.342;2022-10-24T15:45:19;6.15;;;1.85;;
61640;SDS011;62201;49.966;8.342;2022-10-24T15:47:44;4.13;;;1.10;;
61640;SDS011;62201;49.966;8.342;2022-10-24T15:50:17;7.13;;;1.10;;
61640;SDS011;62201;49.966;8.342;2022-10-24T15:52:48;7.88;;;1.88;;
61640;SDS011;62201;49.966;8.342;2022-10-24T15:55:23;7.63;;;1.33;;
61640;SDS011;62201;49.966;8.342;2022-10-24T15:57:50;7.35;;;1.52;;
61640;SDS011;62201;49.966;8.342;2022-10-24T16:00:17;7.32;;;1.35;;
61640;SDS011;62201;49.966;8.342;2022-10-24T16:02:45;4.93;;;1.35;;
61640;SDS011;62201;49.966;8.342;2022-10-24T16:05:17;7.15;;;1.52;;
61640;SDS011;62201;49.966;8.342;2022-10-24T16:07:45;7.72;;;1.50;;
61640;SDS011;62201;49.966;8.342;2022-10-24T16:10:12;5.93;;;1.45;;
61640;SDS011;62201;49.966;8.342;2022-10-24T16:12:40;5.60;;;1.30;;
61640;SDS011;62201;49.966;8.342;2022-10-24T16:15:09;5.50;;;1.30;;
61640;SDS011;62201;49.966;8.342;2022-10-24T16:18:08;6.93;;;1.42;;
61640;SDS011;62201;49.966;8.342;2022-10-24T16:20:34;5.32;;;1.17;;
61640;SDS011;62201;49.966;8.342;2022-10-24T16:23:00;5.97;;;1.33;;
61640;SDS011;62201;49.966;8.342;2022-10-24T16:25:27;11.25;;;1.40;;
61640;SDS011;62201;49.966;8.342;2022-10-24T16:27:54;7.60;;;1.50;;
61640;SDS011;62201;49.966;8.342;2022-10-24T16:30:21;6.45;;;1.55;;
61640;SDS011;62201;49.966;8.342;2022-10-24T16:32:49;9.93;;;1.95;;
61640;SDS011;62201;49.966;8.342;2022-10-24T16:35:16;6.43;;;1.55;;
61640;SDS011;62201;49.966;8.342;2022-10-24T16:37:43;8.82;;;1.85;;
61640;SDS011;62201;49.966;8.342;2022-10-24T16:40:08;6.90;;;1.50;;
61640;SDS011;62201;49.966;8.342;2022-10-24T16:42:36;10.27;;;1.48;;
61640;SDS011;62201;49.966;8.342;2022-10-24T16:45:01;8.25;;;1.92;;
61640;SDS011;62201;49.966;8.342;2022-10-24T16:47:27;6.20;;;1.15;;
61640;SDS011;62201;49.966;8.342;2022-10-24T16:49:56;13.20;;;2.03;;
61640;SDS011;62201;49.966;8.342;2022-10-24T16:52:23;6.50;;;1.23;;
61640;SDS011;62201;49.966;8.342;2022-10-24T16:54:49;7.85;;;1.48;;
61640;SDS011;62201;49.966;8.342;2022-10-24T16:57:17;7.47;;;1.30;;
61640;SDS011;62201;49.966;8.342;2022-10-24T16:59:44;12.85;;;1.77;;